Aérodrome :
LOGIN :

S'inscrire | Disclaimer

   EN    FR    IT 

 










Légende :    VFR   VFR Marginal   IFR   IFR Intensif   IFR Très Intensif
Visi : 
Plafond : 
>= 8 km
>= 3000ft
5 à 8 km
1000 à 3000 ft
1500m à 5 km
500 à 1000 ft
800 à 1500m
200 à 500 ft
< 800m
< 200 ft
Symboles :   Orages  Brouillard  Fortes neiges  Fortes précipitations  Vent > 20 kt
SIGMETs :   Divers  Orages  Givrage  Turbulence  Onde Orograph.  Cendres Volcan.






- Altitude de l'aérodrome : 1083 ft


LRCT - Câmpia Turzii Air Base

DERNIER METAR :
  • 232000Z 19017KT 9999 FEW065 SCT080 08/00 Q1010 BLU BLU

METARs EXPIRÉS :
  • 231900Z 19011KT 9999 SCT070 BKN110 08/00 Q1012 BLU BLU

TAF TAF LRCT
Valide du 23 à 18h jusqu'au 24 à 18h UTC


231700Z 2318/2418 16010KT 9999 BKN050 OVC070
PROB30
TEMPO 2319/2323 22015KT 7000 RA BKN025
TEMPO 2402/2406 30010G20KT 6000 RA SHRA BKN015 FEW035CB OVC040
BECMG 2408/2410 33015G25KT SCT025 BKN080



MET'MAP, la Météo Aéronautique d'un coup d'oeil ! - Copyright ORBIFLY Décembre 2007 - Disclaimer

ORBIFLY MET'MAP TEAM :

Programmation & Développement : Alexandra Zaïnal
Sur une idée originale de : Baudouin d'Aumeries
Assistance à la programmation : Marc-Olivier Méhu
Soutien technique & logistique : Manuel Goepfert

Contact : metmap@orbifly.com




SOURCES & CREDITS :

   NOAA